Time;durP1;ratioP1;P1;durP2;ratioP2;P2;SDS_P1;SDS_P2;PMS_P1;PMS_P2;Temp;Humidity;BMP_temperature;BMP_pressure;BME280_temperature;BME280_humidity;BME280_pressure;Samples;Min_cycle;Max_cycle;Signal;HPM_P1;HPM_P2
2022/02/20 00:01:04;;;;;;;10.65;3.50;;;;;;;3.47;100.00;100360.38;10110090;28;20142;-66
2022/02/20 00:06:01;;;;;;;10.27;2.85;;;;;;;3.44;100.00;100352.84;10119945;28;20061;-64
2022/02/20 00:10:57;;;;;;;11.40;5.72;;;;;;;3.51;100.00;100342.50;10089655;28;20110;-65
2022/02/20 00:15:54;;;;;;;7.22;2.58;;;;;;;3.60;100.00;100340.84;10083249;28;20082;-65
2022/02/20 00:20:51;;;;;;;9.55;2.70;;;;;;;3.72;100.00;100340.50;10097223;28;20692;-65
2022/02/20 00:25:48;;;;;;;8.48;2.20;;;;;;;3.50;100.00;100344.38;10119632;28;20063;-65
2022/02/20 00:30:45;;;;;;;8.73;2.63;;;;;;;3.53;100.00;100338.44;10093581;28;20102;-67
2022/02/20 00:35:45;;;;;;;7.60;2.70;;;;;;;3.58;100.00;100343.81;10089132;28;20098;-68
2022/02/20 00:40:44;;;;;;;;;;;;;;;3.50;100.00;100349.78;10100580;28;20122;-67
2022/02/20 00:45:41;;;;;;;8.88;2.00;;;;;;;3.59;100.00;100345.41;10104549;28;20406;-67
2022/02/20 00:50:38;;;;;;;5.85;2.10;;;;;;;3.62;100.00;100345.94;10107288;28;20074;-68
2022/02/20 00:55:34;;;;;;;5.45;2.10;;;;;;;3.52;100.00;100347.63;10102753;28;20047;-69
2022/02/20 01:00:31;;;;;;;8.73;3.30;;;;;;;3.66;100.00;100347.00;10095443;28;20538;-68
2022/02/20 01:05:30;;;;;;;7.65;2.28;;;;;;;3.59;100.00;100337.31;10104431;28;20051;-65
2022/02/20 01:10:27;;;;;;;6.88;1.55;;;;;;;3.64;100.00;100343.78;10077507;28;20618;-66
2022/02/20 01:15:23;;;;;;;3.92;1.23;;;;;;;3.50;100.00;100338.19;10101358;28;20051;-65
2022/02/20 01:20:20;;;;;;;4.97;1.30;;;;;;;3.53;100.00;100343.03;10124849;28;20137;-65
2022/02/20 01:25:16;;;;;;;2.53;1.25;;;;;;;3.59;100.00;100341.91;10113892;28;20097;-69
2022/02/20 01:30:13;;;;;;;4.15;1.40;;;;;;;3.47;100.00;100344.97;10103435;28;20563;-68
2022/02/20 01:35:10;;;;;;;6.05;1.77;;;;;;;3.62;100.00;100351.34;10111950;28;20420;-69
2022/02/20 01:40:07;;;;;;;4.07;1.63;;;;;;;3.63;100.00;100355.69;10094665;28;20404;-68
2022/02/20 01:45:04;;;;;;;3.20;1.27;;;;;;;3.66;100.00;100347.00;10101036;28;20063;-69
2022/02/20 01:50:00;;;;;;;3.15;1.10;;;;;;;3.58;100.00;100357.31;10125241;28;20085;-65
2022/02/20 01:54:57;;;;;;;3.45;1.27;;;;;;;3.43;100.00;100354.69;10117243;28;20058;-65
2022/02/20 01:59:58;;;;;;;7.57;1.92;;;;;;;3.33;100.00;100360.19;10096457;28;20043;-68
2022/02/20 02:04:54;;;;;;;3.83;1.40;;;;;;;3.37;100.00;100353.13;10083041;28;20536;-68
2022/02/20 02:09:52;;;;;;;4.60;2.10;;;;;;;3.33;100.00;100358.28;10106028;28;20077;-64
2022/02/20 02:14:52;;;;;;;5.10;1.85;;;;;;;3.18;100.00;100358.38;10099120;28;20521;-69
2022/02/20 02:19:49;;;;;;;5.85;1.95;;;;;;;3.34;100.00;100361.78;10117087;28;20486;-69
2022/02/20 02:24:46;;;;;;;5.80;2.30;;;;;;;3.33;100.00;100370.97;10122098;28;20588;-69
2022/02/20 02:29:43;;;;;;;4.32;2.40;;;;;;;3.36;100.00;100365.84;10083447;28;20069;-65
2022/02/20 02:34:41;;;;;;;6.00;2.35;;;;;;;3.32;100.00;100364.78;10094922;28;20497;-67
2022/02/20 02:39:39;;;;;;;5.88;2.63;;;;;;;3.37;100.00;100366.66;10088409;28;20043;-65
2022/02/20 02:44:36;;;;;;;5.90;2.60;;;;;;;3.34;100.00;100372.59;10105335;28;20047;-65
2022/02/20 02:49:37;;;;;;;5.05;2.47;;;;;;;3.30;100.00;100371.56;10098973;28;20039;-65
2022/02/20 02:54:34;;;;;;;5.57;3.03;;;;;;;3.24;100.00;100388.84;10110898;28;20074;-65
2022/02/20 02:59:30;;;;;;;4.50;2.72;;;;;;;3.30;100.00;100409.38;10078187;28;20129;-65
2022/02/20 03:04:26;;;;;;;6.97;3.33;;;;;;;3.36;100.00;100402.84;10107629;28;20458;-65
2022/02/20 03:09:24;;;;;;;6.68;3.80;;;;;;;3.50;100.00;100414.66;10108478;28;20421;-67
2022/02/20 03:14:21;;;;;;;5.88;3.97;;;;;;;3.51;100.00;100416.31;10105248;28;20105;-68
2022/02/20 03:19:17;;;;;;;5.35;3.88;;;;;;;3.41;100.00;100418.22;10087171;28;20130;-68
2022/02/20 03:24:14;;;;;;;7.60;4.63;;;;;;;3.38;100.00;100428.50;10115437;28;20051;-67
2022/02/20 03:29:10;;;;;;;7.22;4.88;;;;;;;3.29;100.00;100440.16;10102915;28;20074;-68
2022/02/20 03:34:07;;;;;;;6.35;4.53;;;;;;;3.22;100.00;100440.47;10104032;28;20071;-66
2022/02/20 03:39:03;;;;;;;8.27;5.43;;;;;;;3.10;100.00;100459.69;10090522;28;20591;-67
2022/02/20 03:43:59;;;;;;;11.15;6.70;;;;;;;3.14;100.00;100479.66;10110820;28;20076;-67
2022/02/20 03:48:56;;;;;;;11.63;7.05;;;;;;;3.08;100.00;100488.84;10094537;28;20058;-67
2022/02/20 03:53:52;;;;;;;10.48;7.20;;;;;;;3.09;100.00;100498.59;10100687;28;20129;-67
2022/02/20 03:58:49;;;;;;;13.82;9.20;;;;;;;3.14;100.00;100506.69;10112748;28;20038;-69
2022/02/20 04:03:45;;;;;;;14.40;8.38;;;;;;;3.01;100.00;100515.34;10113465;28;20454;-68
2022/02/20 04:08:42;;;;;;;12.05;8.35;;;;;;;3.10;100.00;100521.81;10097662;28;20070;-66
2022/02/20 04:13:38;;;;;;;16.85;10.77;;;;;;;3.04;100.00;100531.03;10092530;28;20098;-68
2022/02/20 04:18:35;;;;;;;14.15;10.23;;;;;;;3.09;100.00;100539.13;10101612;28;20082;-68
2022/02/20 04:23:31;;;;;;;16.10;10.52;;;;;;;3.11;100.00;100547.75;10126491;28;20101;-68
2022/02/20 04:28:30;;;;;;;16.15;11.10;;;;;;;3.14;100.00;100557.22;10107762;28;20042;-68
2022/02/20 04:33:27;;;;;;;15.10;10.63;;;;;;;3.19;100.00;100576.09;10103571;28;20049;-68
2022/02/20 04:38:23;;;;;;;17.13;10.40;;;;;;;3.15;100.00;100586.63;10088719;28;20097;-68
2022/02/20 04:43:20;;;;;;;18.00;11.77;;;;;;;3.16;100.00;100582.88;10095564;28;20563;-68
2022/02/20 04:48:16;;;;;;;17.42;12.75;;;;;;;3.26;100.00;100581.25;10087510;28;20070;-68
2022/02/20 04:53:13;;;;;;;16.92;11.48;;;;;;;3.23;100.00;100560.97;10101447;28;20050;-68
2022/02/20 04:58:10;;;;;;;15.57;10.93;;;;;;;3.23;100.00;100571.78;10096133;28;20462;-68
2022/02/20 05:03:06;;;;;;;19.25;13.32;;;;;;;3.26;100.00;100570.44;10108722;28;20130;-67
2022/02/20 05:08:03;;;;;;;17.50;12.15;;;;;;;3.28;100.00;100579.09;10102528;28;20122;-67
2022/02/20 05:13:00;;;;;;;19.83;12.93;;;;;;;3.20;100.00;100574.22;10102869;28;20501;-67
2022/02/20 05:17:56;;;;;;;18.85;13.65;;;;;;;3.24;100.00;100572.59;10104771;28;20437;-65
2022/02/20 05:22:53;;;;;;;23.27;13.98;;;;;;;3.30;100.00;100560.72;10118771;28;20078;-68
2022/02/20 05:27:49;;;;;;;19.15;12.88;;;;;;;3.24;100.00;100554.47;10107379;28;20142;-68
2022/02/20 05:32:46;;;;;;;18.30;12.23;;;;;;;3.39;100.00;100553.66;10099991;28;20513;-67
2022/02/20 05:37:45;;;;;;;18.73;11.88;;;;;;;3.30;100.00;100555.31;10084307;28;20051;-67
2022/02/20 05:42:42;;;;;;;17.17;10.80;;;;;;;3.28;100.00;100557.47;10092510;28;20138;-67
2022/02/20 05:47:39;;;;;;;17.50;10.90;;;;;;;3.34;100.00;100545.53;10089318;28;20119;-68
2022/02/20 05:52:36;;;;;;;16.33;10.65;;;;;;;3.26;100.00;100565.03;10084287;28;20130;-68
2022/02/20 05:57:52;;;;;;;16.02;10.23;;;;;;;3.33;100.00;100543.94;10096221;28;20090;-67
2022/02/20 06:02:49;;;;;;;14.80;9.20;;;;;;;3.35;100.00;100544.47;10083416;28;20969;-68
2022/02/20 06:07:46;;;;;;;15.73;8.88;;;;;;;3.32;100.00;100553.13;10102328;28;20079;-65
2022/02/20 06:12:42;;;;;;;13.63;7.60;;;;;;;3.22;100.00;100547.75;10114099;28;20077;-68
2022/02/20 06:17:39;;;;;;;13.10;7.93;;;;;;;3.24;100.00;100545.56;10102942;28;20109;-68
2022/02/20 06:22:36;;;;;;;18.60;9.55;;;;;;;3.28;100.00;100552.88;10127664;28;20092;-66
2022/02/20 06:27:33;;;;;;;14.18;9.38;;;;;;;3.31;100.00;100556.91;10106118;28;20043;-66
2022/02/20 06:32:47;;;;;;;19.27;10.65;;;;;;;3.24;100.00;100550.97;10091545;28;20471;-65
2022/02/20 06:37:44;;;;;;;17.27;11.18;;;;;;;3.27;100.00;100555.81;10098641;28;20074;-68
2022/02/20 06:42:40;;;;;;;17.42;10.95;;;;;;;3.24;100.00;100559.09;10107249;28;20047;-68
2022/02/20 06:47:36;;;;;;;20.42;12.57;;;;;;;3.26;100.00;100554.22;10092704;28;20043;-68
2022/02/20 06:52:33;;;;;;;17.60;11.60;;;;;;;3.24;100.00;100545.56;10109340;28;20082;-68
2022/02/20 06:57:34;;;;;;;15.68;8.68;;;;;;;3.26;100.00;100548.81;10103969;28;20039;-68
2022/02/20 07:02:30;;;;;;;16.52;8.90;;;;;;;3.23;100.00;100538.56;10123425;28;20074;-68
2022/02/20 07:07:27;;;;;;;12.25;7.93;;;;;;;3.29;100.00;100532.03;10111049;28;20093;-68
2022/02/20 07:12:24;;;;;;;13.63;7.80;;;;;;;3.32;100.00;100547.75;10120104;28;20046;-69
2022/02/20 07:17:21;;;;;;;13.05;7.22;;;;;;;3.37;100.00;100550.41;10100869;28;20070;-69
2022/02/20 07:22:17;;;;;;;12.80;5.63;;;;;;;3.32;100.00;100542.34;10106766;28;20094;-69
2022/02/20 07:27:13;;;;;;;10.35;5.32;;;;;;;3.36;100.00;100532.56;10110301;28;20548;-69
2022/02/20 07:32:10;;;;;;;8.05;4.63;;;;;;;3.31;100.00;100540.69;10095998;28;20070;-68
2022/02/20 07:37:07;;;;;;;9.52;4.75;;;;;;;3.27;100.00;100523.41;10093651;28;20040;-68
2022/02/20 07:42:03;;;;;;;8.23;5.55;;;;;;;3.31;100.00;100529.88;10084439;28;20580;-67
2022/02/20 07:47:00;;;;;;;8.25;4.53;;;;;;;3.40;100.00;100522.84;10097834;28;20377;-68
2022/02/20 07:51:57;;;;;;;10.38;4.95;;;;;;;3.45;100.00;100530.94;10089768;28;20047;-67
2022/02/20 07:56:54;;;;;;;10.73;4.78;;;;;;;3.46;100.00;100532.56;10102539;28;20095;-68
2022/02/20 08:01:50;;;;;;;7.45;5.05;;;;;;;3.55;100.00;100524.66;10093110;28;20047;-68
2022/02/20 08:06:46;;;;;;;13.43;5.78;;;;;;;3.48;100.00;100519.59;10105060;28;20063;-64
2022/02/20 08:11:43;;;;;;;9.95;6.15;;;;;;;3.40;100.00;100501.22;10106023;28;20086;-64
2022/02/20 08:16:40;;;;;;;6.97;4.40;;;;;;;3.31;100.00;100513.66;10104772;28;20102;-65
2022/02/20 08:21:37;;;;;;;6.32;4.10;;;;;;;3.24;100.00;100483.44;10105688;28;20049;-73
2022/02/20 08:26:33;;;;;;;7.20;4.10;;;;;;;3.34;100.00;100491.50;10104228;28;20059;-68
2022/02/20 08:31:30;;;;;;;6.50;3.95;;;;;;;3.11;100.00;100469.41;10098557;28;20504;-68
2022/02/20 08:36:28;;;;;;;6.60;4.07;;;;;;;3.30;100.00;100468.81;10097999;28;20715;-67
2022/02/20 08:41:25;;;;;;;8.23;4.25;;;;;;;3.15;100.00;100462.38;10097779;28;20051;-67
2022/02/20 08:46:21;;;;;;;6.47;4.20;;;;;;;3.23;100.00;100435.88;10101755;28;20050;-68
2022/02/20 08:51:18;;;;;;;7.45;5.07;;;;;;;3.21;100.00;100440.75;10100876;28;20496;-69
2022/02/20 08:56:14;;;;;;;8.90;5.00;;;;;;;3.17;100.00;100422.38;10104204;28;20082;-69
2022/02/20 09:01:16;;;;;;;8.13;5.10;;;;;;;3.13;100.00;100413.22;10098619;28;20043;-68
2022/02/20 09:06:13;;;;;;;9.07;5.05;;;;;;;3.03;100.00;100396.22;10115082;28;20039;-68
2022/02/20 09:11:09;;;;;;;10.88;6.40;;;;;;;3.10;100.00;100384.03;10087954;28;20114;-69
2022/02/20 09:16:06;;;;;;;8.70;5.82;;;;;;;3.13;100.00;100363.75;10103496;28;20517;-68
2022/02/20 09:21:02;;;;;;;9.48;6.07;;;;;;;3.07;100.00;100352.19;10097019;28;20584;-68
2022/02/20 09:25:59;;;;;;;9.55;6.03;;;;;;;3.10;100.00;100330.00;10102374;28;20055;-68
2022/02/20 09:30:55;;;;;;;8.43;4.88;;;;;;;3.05;100.00;100316.53;10103387;28;20063;-69
2022/02/20 09:35:52;;;;;;;10.23;6.13;;;;;;;2.85;100.00;100305.81;10094338;28;20528;-69
2022/02/20 09:40:49;;;;;;;10.50;7.18;;;;;;;2.85;100.00;100292.31;10109679;28;20096;-73
2022/02/20 09:45:47;;;;;;;10.73;6.75;;;;;;;3.05;100.00;100276.03;10104610;28;20501;-73
2022/02/20 09:50:45;;;;;;;11.52;7.45;;;;;;;2.85;100.00;100257.22;10101063;28;20089;-73
2022/02/20 09:55:47;;;;;;;10.98;6.82;;;;;;;2.94;100.00;100253.66;10102774;28;20043;-72
2022/02/20 10:00:55;;;;;;;11.32;7.28;;;;;;;2.98;100.00;100237.72;10110061;28;20117;-73
2022/02/20 10:05:52;;;;;;;10.13;7.13;;;;;;;2.88;100.00;100218.88;10109427;28;20554;-73
2022/02/20 10:10:49;;;;;;;14.25;6.82;;;;;;;2.94;100.00;100215.03;10108221;28;20047;-73
2022/02/20 10:15:46;;;;;;;11.13;6.47;;;;;;;2.83;100.00;100208.06;10108898;28;20076;-73
2022/02/20 10:20:44;;;;;;;11.18;6.80;;;;;;;2.71;100.00;100187.63;10092935;28;20556;-73
2022/02/20 10:25:45;;;;;;;11.88;6.57;;;;;;;2.74;100.00;100176.28;10127506;28;20039;-72
2022/02/20 10:30:43;;;;;;;9.00;5.53;;;;;;;2.76;100.00;100172.47;10087832;28;20050;-72
2022/02/20 10:35:43;;;;;;;8.32;5.13;;;;;;;2.93;100.00;100140.53;10106975;28;20138;-71
2022/02/20 10:40:43;;;;;;;8.57;4.80;;;;;;;2.85;100.00;100139.22;10104876;28;20501;-71
2022/02/20 10:45:40;;;;;;;7.97;4.35;;;;;;;2.77;100.00;100104.72;10093154;28;20117;-73
2022/02/20 10:50:37;;;;;;;7.85;4.45;;;;;;;2.78;100.00;100100.13;10088988;28;20102;-73
2022/02/20 10:55:41;;;;;;;8.00;4.88;;;;;;;2.84;100.00;100082.81;10089130;28;20077;-70
2022/02/20 11:00:49;;;;;;;8.10;4.47;;;;;;;2.96;100.00;100075.13;10097863;28;20106;-70
2022/02/20 11:05:45;;;;;;;7.35;4.28;;;;;;;2.93;100.00;100081.13;10110135;28;20475;-70
2022/02/20 11:10:42;;;;;;;7.57;4.75;;;;;;;2.90;100.00;100049.25;10102110;28;20043;-70
2022/02/20 11:15:40;;;;;;;6.72;4.07;;;;;;;2.99;100.00;100028.66;10090576;28;20042;-70
2022/02/20 11:20:44;;;;;;;6.35;4.10;;;;;;;2.99;100.00;100023.25;10099329;28;20077;-71
2022/02/20 11:25:44;;;;;;;8.20;3.90;;;;;;;2.97;100.00;100006.56;10114016;28;20070;-71
2022/02/20 11:30:42;;;;;;;14.50;8.88;;;;;;;3.04;100.00;99977.31;10103096;28;20070;-71
2022/02/20 11:35:43;;;;;;;8.30;4.57;;;;;;;3.01;100.00;99968.97;10088378;28;20477;-71
2022/02/20 11:40:51;;;;;;;8.40;5.13;;;;;;;3.23;100.00;99954.97;10093697;28;20043;-71
2022/02/20 11:46:07;;;;;;;11.50;5.72;;;;;;;3.34;100.00;99940.22;10098166;28;20070;-71
2022/02/20 11:51:12;;;;;;;10.23;5.80;;;;;;;3.41;100.00;99913.66;10102623;28;20079;-70
2022/02/20 11:56:12;;;;;;;9.80;5.60;;;;;;;3.54;100.00;99906.75;10117800;28;20075;-70
2022/02/20 12:01:10;;;;;;;9.93;6.63;;;;;;;3.58;100.00;99886.97;10099360;28;20170;-70
2022/02/20 12:06:14;;;;;;;10.90;6.75;;;;;;;3.75;100.00;99869.41;10098746;28;20460;-68
2022/02/20 12:11:18;;;;;;;16.10;7.15;;;;;;;3.94;100.00;99862.09;10107209;28;20043;-70
2022/02/20 12:16:35;;;;;;;11.88;6.97;;;;;;;4.07;100.00;99838.91;10101319;28;20090;-71
2022/02/20 12:21:32;;;;;;;11.07;7.20;;;;;;;4.30;100.00;99837.16;10102253;28;20042;-71
2022/02/20 12:26:41;;;;;;;11.50;7.28;;;;;;;4.67;100.00;99824.59;10099907;28;20042;-71
2022/02/20 12:32:11;;;;;;;10.70;6.85;;;;;;;4.98;100.00;99823.97;10100555;28;20046;-71
2022/02/20 12:37:10;;;;;;;8.32;5.18;;;;;;;5.19;100.00;99803.47;10096390;28;20078;-71
2022/02/20 12:42:07;;;;;;;18.13;11.55;;;;;;;5.42;100.00;99806.25;10106005;28;20054;-71
2022/02/20 12:47:04;;;;;;;11.55;6.78;;;;;;;5.61;100.00;99777.03;10102536;28;20120;-71
2022/02/20 12:52:05;;;;;;;11.07;7.10;;;;;;;5.74;100.00;99780.03;10105704;28;20051;-71
2022/02/20 12:57:02;;;;;;;10.65;6.70;;;;;;;5.85;100.00;99773.25;10101649;28;20105;-70
2022/02/20 13:02:04;;;;;;;11.80;7.40;;;;;;;5.97;100.00;99767.28;10102931;28;20081;-71
2022/02/20 13:07:02;;;;;;;13.05;8.60;;;;;;;6.09;100.00;99754.75;10090511;28;20117;-71
2022/02/20 13:12:18;;;;;;;12.82;7.47;;;;;;;6.17;100.00;99746.94;10086379;28;20165;-71
2022/02/20 13:17:15;;;;;;;9.70;6.43;;;;;;;6.26;100.00;99728.78;10090922;28;20078;-71
2022/02/20 13:22:12;;;;;;;11.38;6.30;;;;;;;6.38;100.00;99741.78;10091992;28;20101;-69
2022/02/20 13:27:08;;;;;;;12.32;6.93;;;;;;;6.46;100.00;99725.53;10087290;28;20070;-68
2022/02/20 13:32:05;;;;;;;10.38;6.65;;;;;;;6.57;100.00;99719.78;10092341;28;20051;-69
2022/02/20 13:37:13;;;;;;;13.75;6.88;;;;;;;6.66;100.00;99704.31;10092562;28;20047;-76
2022/02/20 13:42:13;;;;;;;15.40;7.53;;;;;;;6.78;100.00;99685.50;10100299;28;20515;-68
2022/02/20 13:47:11;;;;;;;21.05;8.43;;;;;;;6.86;100.00;99690.13;10115967;28;20052;-69
2022/02/20 13:52:08;;;;;;;17.67;8.13;;;;;;;6.94;100.00;99674.97;10093396;28;20458;-71
2022/02/20 13:57:04;;;;;;;19.40;7.30;;;;;;;7.07;100.00;99667.78;10102663;28;20051;-70
2022/02/20 14:02:03;;;;;;;16.30;7.30;;;;;;;7.13;100.00;99650.19;10102018;28;20070;-69
2022/02/20 14:07:08;;;;;;;13.77;5.43;;;;;;;7.26;100.00;99654.63;10104383;28;20094;-69
2022/02/20 14:12:33;;;;;;;22.83;6.25;;;;;;;7.33;100.00;99621.53;10107765;28;20043;-68
2022/02/20 14:17:48;;;;;;;12.75;4.57;;;;;;;7.40;100.00;99623.75;10106328;28;20134;-69
2022/02/20 14:22:45;;;;;;;14.13;5.95;;;;;;;7.44;100.00;99602.97;10097212;28;20046;-69
2022/02/20 14:27:44;;;;;;;18.52;6.07;;;;;;;7.49;100.00;99602.78;10124359;28;20039;-69
2022/02/20 14:32:41;;;;;;;19.08;6.53;;;;;;;7.53;100.00;99614.63;10093426;28;20042;-69
2022/02/20 14:37:38;;;;;;;27.70;7.35;;;;;;;7.57;100.00;99580.22;10091888;28;20191;-69
2022/02/20 14:42:34;;;;;;;20.00;5.68;;;;;;;7.63;100.00;99588.97;10106102;28;20066;-69
2022/02/20 14:47:31;;;;;;;15.98;5.00;;;;;;;7.65;100.00;99579.38;10103177;28;20106;-69
2022/02/20 14:52:27;;;;;;;20.48;5.40;;;;;;;7.68;100.00;99567.84;10085860;28;20156;-69
2022/02/20 14:57:24;;;;;;;16.52;4.93;;;;;;;7.71;100.00;99572.63;10100052;28;20501;-70
2022/02/20 15:02:22;;;;;;;14.85;5.00;;;;;;;7.76;100.00;99568.94;10100506;28;20084;-71
2022/02/20 15:07:18;;;;;;;18.25;3.88;;;;;;;7.77;100.00;99565.91;10101156;28;20504;-69
2022/02/20 15:12:28;;;;;;;16.52;4.68;;;;;;;7.80;100.00;99540.75;10094986;28;20186;-69
2022/02/20 15:17:25;;;;;;;15.32;4.88;;;;;;;7.80;100.00;99540.75;10100660;28;20091;-68
2022/02/20 15:22:24;;;;;;;19.10;5.65;;;;;;;7.84;100.00;99545.50;10097461;28;20166;-69
2022/02/20 15:27:20;;;;;;;16.42;4.80;;;;;;;7.81;100.00;99544.25;10103785;28;20513;-69
2022/02/20 15:32:17;;;;;;;22.85;5.20;;;;;;;7.79;100.00;99530.97;10095843;28;20050;-70
2022/02/20 15:37:13;;;;;;;17.60;6.35;;;;;;;7.80;100.00;99535.28;10102447;28;20090;-71
2022/02/20 15:42:11;;;;;;;14.50;3.78;;;;;;;7.79;100.00;99525.53;10096469;28;20128;-70
2022/02/20 15:47:07;;;;;;;14.02;3.83;;;;;;;7.81;100.00;99517.03;10102451;28;20055;-70
2022/02/20 15:52:04;;;;;;;16.60;4.97;;;;;;;7.80;100.00;99499.91;10093417;28;20523;-69
2022/02/20 15:57:02;;;;;;;14.82;4.50;;;;;;;7.80;100.00;99510.00;10098912;28;20110;-69
2022/02/20 16:01:59;;;;;;;10.90;3.92;;;;;;;7.79;100.00;99476.53;10098356;28;20101;-69
2022/02/20 16:06:55;;;;;;;10.73;3.67;;;;;;;7.83;100.00;99492.22;10102246;28;20098;-68
2022/02/20 16:11:52;;;;;;;10.32;4.10;;;;;;;7.82;100.00;99490.63;10096164;28;20351;-70
2022/02/20 16:16:48;;;;;;;14.48;4.88;;;;;;;7.80;100.00;99470.00;10097260;28;20054;-67
2022/02/20 16:21:45;;;;;;;13.00;5.88;;;;;;;7.83;100.00;99462.28;10100255;28;20129;-68
2022/02/20 16:26:46;;;;;;;12.85;5.05;;;;;;;7.83;100.00;99465.00;10096893;28;20097;-68
2022/02/20 16:31:43;;;;;;;9.68;4.90;;;;;;;7.85;100.00;99446.44;10091445;28;20668;-69
2022/02/20 16:36:45;;;;;;;14.25;4.90;;;;;;;7.85;100.00;99430.09;10090490;28;20054;-68
2022/02/20 16:41:42;;;;;;;13.07;4.50;;;;;;;7.86;100.00;99420.81;10091123;28;20138;-69
2022/02/20 16:46:38;;;;;;;11.35;4.47;;;;;;;7.84;100.00;99407.53;10096594;28;20082;-68
2022/02/20 16:51:36;;;;;;;10.52;4.53;;;;;;;7.87;100.00;99397.94;10102702;28;20101;-69
2022/02/20 16:56:32;;;;;;;11.23;4.43;;;;;;;7.92;100.00;99384.13;10093849;28;20716;-69
2022/02/20 17:01:31;;;;;;;11.30;4.05;;;;;;;7.94;100.00;99379.94;10088023;28;20078;-70
2022/02/20 17:06:28;;;;;;;7.47;3.67;;;;;;;7.97;100.00;99386.63;10118788;28;20112;-70
2022/02/20 17:11:25;;;;;;;9.70;3.22;;;;;;;7.92;100.00;99365.06;10095720;28;20042;-69
2022/02/20 17:16:21;;;;;;;5.25;2.15;;;;;;;7.95;100.00;99358.94;10097345;28;20498;-68
2022/02/20 17:21:18;;;;;;;5.07;1.98;;;;;;;7.98;100.00;99352.81;10092336;28;20093;-69
2022/02/20 17:26:14;;;;;;;6.38;2.40;;;;;;;7.99;100.00;99349.00;10098200;28;20058;-69
2022/02/20 17:31:11;;;;;;;5.40;2.47;;;;;;;7.97;100.00;99329.47;10092319;28;20065;-70
2022/02/20 17:36:08;;;;;;;10.23;2.47;;;;;;;7.99;100.00;99327.22;10090419;28;20505;-69
2022/02/20 17:41:04;;;;;;;6.15;2.15;;;;;;;7.99;100.00;99310.88;10093914;28;20067;-69
2022/02/20 17:46:01;;;;;;;6.68;2.42;;;;;;;8.02;100.00;99304.75;10083084;28;20047;-69
2022/02/20 17:50:57;;;;;;;8.52;2.45;;;;;;;8.01;100.00;99295.81;10087609;28;20149;-69
2022/02/20 17:55:54;;;;;;;5.88;2.22;;;;;;;8.03;100.00;99279.16;10096211;28;20533;-69
2022/02/20 18:00:50;;;;;;;6.10;2.60;;;;;;;8.04;100.00;99253.50;10104640;28;20149;-69
2022/02/20 18:05:47;;;;;;;6.60;2.95;;;;;;;8.05;100.00;99244.19;10108481;28;20517;-69
2022/02/20 18:10:44;;;;;;;4.38;2.10;;;;;;;8.05;100.00;99233.31;10120265;28;20053;-70
2022/02/20 18:15:40;;;;;;;7.05;2.42;;;;;;;8.08;100.00;99238.09;10103257;28;20050;-70
2022/02/20 18:20:41;;;;;;;5.65;2.47;;;;;;;8.06;100.00;99218.59;10102976;28;20054;-69
2022/02/20 18:25:38;;;;;;;7.72;2.60;;;;;;;8.05;100.00;99192.47;10100395;28;20081;-69
2022/02/20 18:30:40;;;;;;;3.72;1.90;;;;;;;8.06;100.00;99168.78;10098871;28;20079;-69
2022/02/20 18:35:37;;;;;;;6.68;1.92;;;;;;;8.10;100.00;99165.06;10098827;28;20767;-69
2022/02/20 18:40:33;;;;;;;3.58;1.90;;;;;;;8.11;100.00;99149.50;10110315;28;20058;-69
2022/02/20 18:45:30;;;;;;;6.05;1.92;;;;;;;8.14;100.00;99132.50;10113817;28;20501;-69
2022/02/20 18:50:27;;;;;;;6.05;1.83;;;;;;;8.11;100.00;99123.06;10101990;28;20050;-69
2022/02/20 18:55:23;;;;;;;4.82;1.65;;;;;;;8.16;100.00;99106.50;10105594;28;20065;-69
2022/02/20 19:00:20;;;;;;;3.72;1.38;;;;;;;8.14;100.00;99089.72;10090266;28;20046;-69
2022/02/20 19:05:16;;;;;;;5.47;1.50;;;;;;;8.13;100.00;99071.03;10108384;28;20058;-69
2022/02/20 19:10:13;;;;;;;5.07;2.00;;;;;;;8.13;100.00;99071.81;10096693;28;20129;-69
2022/02/20 19:15:14;;;;;;;4.97;1.40;;;;;;;8.14;100.00;99084.28;10100372;28;20047;-70
2022/02/20 19:20:12;;;;;;;3.58;1.42;;;;;;;8.13;100.00;99043.81;10113759;28;20477;-69
2022/02/20 19:25:10;;;;;;;4.80;1.58;;;;;;;8.13;100.00;99022.81;10100120;28;20560;-69
2022/02/20 19:30:09;;;;;;;3.97;1.20;;;;;;;8.12;100.00;99007.63;10102733;28;20112;-69
2022/02/20 19:35:06;;;;;;;4.25;1.20;;;;;;;8.10;100.00;99001.72;10096814;28;20061;-70
2022/02/20 19:40:07;;;;;;;5.50;1.30;;;;;;;8.07;100.00;98968.94;10100212;28;20047;-69
2022/02/20 19:45:05;;;;;;;3.75;1.08;;;;;;;8.08;100.00;98955.00;10092889;28;20141;-69
2022/02/20 19:50:04;;;;;;;3.97;1.73;;;;;;;8.06;100.00;98930.06;10100712;28;20785;-70
2022/02/20 19:55:01;;;;;;;5.63;1.30;;;;;;;8.12;100.00;98914.25;10094108;28;20130;-69
2022/02/20 19:59:58;;;;;;;3.22;1.75;;;;;;;8.08;100.00;98906.00;10087342;28;20051;-69
2022/02/20 20:04:55;;;;;;;3.92;1.30;;;;;;;8.09;100.00;98887.72;10104237;28;20106;-69
2022/02/20 20:09:54;;;;;;;3.83;1.10;;;;;;;8.09;100.00;98868.69;10094315;28;20038;-69
2022/02/20 20:14:51;;;;;;;2.13;0.85;;;;;;;8.10;100.00;98843.84;10097059;28;20440;-69
2022/02/20 20:19:48;;;;;;;3.88;1.40;;;;;;;8.15;100.00;98842.81;10101474;28;20055;-69
2022/02/20 20:24:45;;;;;;;3.45;1.27;;;;;;;8.11;100.00;98807.31;10100545;28;20420;-69
2022/02/20 20:29:41;;;;;;;4.57;1.50;;;;;;;8.11;100.00;98799.16;10103736;28;20413;-69
2022/02/20 20:34:38;;;;;;;3.20;0.93;;;;;;;8.16;100.00;98766.22;10105119;28;20050;-70
2022/02/20 20:39:36;;;;;;;2.53;0.80;;;;;;;8.18;100.00;98774.81;10096332;28;20050;-69
2022/02/20 20:44:36;;;;;;;5.97;1.20;;;;;;;8.17;100.00;98740.59;10096639;28;20050;-69
2022/02/20 20:49:34;;;;;;;3.63;1.00;;;;;;;8.19;100.00;98713.81;10106717;28;20109;-69
2022/02/20 20:54:31;;;;;;;2.78;1.10;;;;;;;8.19;100.00;98738.31;10095936;28;20043;-68
2022/02/20 20:59:29;;;;;;;4.85;0.95;;;;;;;8.19;100.00;98699.38;10114472;28;20483;-69
2022/02/20 21:04:26;;;;;;;5.35;1.20;;;;;;;8.18;100.00;98693.16;10105158;28;20055;-69
2022/02/20 21:09:24;;;;;;;4.85;1.42;;;;;;;8.16;100.00;98673.66;10104438;28;20047;-64
2022/02/20 21:14:21;;;;;;;3.90;0.95;;;;;;;8.20;100.00;98631.00;10108380;28;20097;-64
2022/02/20 21:19:17;;;;;;;3.92;1.35;;;;;;;8.23;100.00;98630.28;10102884;28;20078;-65
2022/02/20 21:24:14;;;;;;;3.28;0.95;;;;;;;8.22;100.00;98596.03;10100956;28;20059;-65
2022/02/20 21:29:11;;;;;;;4.20;1.23;;;;;;;8.23;100.00;98558.72;10105574;28;20492;-64
2022/02/20 21:34:08;;;;;;;6.65;0.95;;;;;;;8.29;100.00;98561.97;10102008;28;20129;-66
2022/02/20 21:39:05;;;;;;;4.10;0.90;;;;;;;8.27;100.00;98559.59;10116307;28;20038;-66
2022/02/20 21:44:02;;;;;;;3.67;1.10;;;;;;;8.31;100.00;98521.53;10112454;28;21383;-66
2022/02/20 21:48:59;;;;;;;5.75;1.23;;;;;;;8.33;100.00;98508.34;10107590;28;20123;-66
2022/02/20 21:53:56;;;;;;;3.90;0.90;;;;;;;8.38;100.00;98491.75;10110907;28;20043;-67
2022/02/20 21:58:53;;;;;;;8.98;1.10;;;;;;;8.39;100.00;98468.81;10103395;28;20082;-63
2022/02/20 22:03:49;;;;;;;3.00;0.80;;;;;;;8.34;100.00;98422.81;10112665;28;20039;-65
2022/02/20 22:08:46;;;;;;;5.00;1.13;;;;;;;8.40;100.00;98421.41;10124265;28;20054;-68
2022/02/20 22:13:43;;;;;;;2.40;0.95;;;;;;;8.43;100.00;98398.91;10134067;28;20109;-67
2022/02/20 22:18:44;;;;;;;3.95;0.75;;;;;;;8.41;100.00;98423.00;10105370;28;20138;-69
2022/02/20 22:23:41;;;;;;;6.38;1.02;;;;;;;8.45;100.00;98363.94;10119748;28;20043;-68
2022/02/20 22:28:38;;;;;;;4.35;0.80;;;;;;;8.54;100.00;98367.22;10107882;28;20058;-63
2022/02/20 22:33:35;;;;;;;3.55;0.85;;;;;;;8.60;100.00;98354.88;10091761;28;20055;-63
2022/02/20 22:38:32;;;;;;;4.10;1.20;;;;;;;8.60;100.00;98360.31;10110938;28;20054;-64
2022/02/20 22:43:28;;;;;;;6.28;1.50;;;;;;;8.52;100.00;98364.06;10114394;28;20094;-67
2022/02/20 22:48:26;;;;;;;6.38;1.38;;;;;;;8.51;100.00;98291.66;10112182;28;20055;-67